Time;durP1;ratioP1;P1;durP2;ratioP2;P2;SDS_P1;SDS_P2;PMS_P1;PMS_P2;Temp;Humidity;BMP_temperature;BMP_pressure;BME280_temperature;BME280_humidity;BME280_pressure;Samples;Min_cycle;Max_cycle;Signal;HPM_P1;HPM_P2
2021/11/14 00:00:38;;;;;;;17.30;13.03;;;10.40;99.90;;;;;;5032216;28;20480;-80
2021/11/14 00:03:05;;;;;;;18.03;11.87;;;10.40;99.90;;;;;;5033363;28;20460;-80
2021/11/14 00:05:34;;;;;;;15.67;11.73;;;10.40;99.90;;;;;;5032880;28;20533;-79
2021/11/14 00:08:01;;;;;;;16.37;11.60;;;10.40;99.90;;;;;;5033122;28;20452;-79
2021/11/14 00:10:30;;;;;;;15.93;11.97;;;10.40;99.90;;;;;;5029349;28;21015;-80
2021/11/14 00:12:57;;;;;;;15.47;11.87;;;10.40;99.90;;;;;;5032799;28;20579;-79
2021/11/14 00:15:24;;;;;;;16.20;9.90;;;10.50;99.90;;;;;;5034106;28;20459;-79
2021/11/14 00:17:51;;;;;;;14.13;10.97;;;10.50;99.90;;;;;;5031602;28;20483;-79
2021/11/14 00:20:20;;;;;;;16.00;10.73;;;10.50;99.90;;;;;;5035032;28;20471;-79
2021/11/14 00:22:49;;;;;;;16.30;10.43;;;10.50;99.90;;;;;;5033028;28;20456;-79
2021/11/14 00:25:18;;;;;;;14.40;10.47;;;10.60;99.90;;;;;;5028009;28;20451;-79
2021/11/14 00:27:45;;;;;;;17.87;11.53;;;10.60;99.90;;;;;;5033613;28;20456;-78
2021/11/14 00:30:12;;;;;;;13.43;9.97;;;10.50;99.90;;;;;;5031958;28;20479;-78
2021/11/14 00:32:39;;;;;;;16.53;10.50;;;10.60;99.90;;;;;;5033972;28;20479;-79
2021/11/14 00:35:08;;;;;;;14.77;10.73;;;10.50;99.90;;;;;;5034753;28;20474;-78
2021/11/14 00:37:36;;;;;;;14.87;10.10;;;10.50;99.90;;;;;;5030914;28;21004;-80
2021/11/14 00:40:09;;;;;;;14.70;9.10;;;10.50;99.90;;;;;;5029288;28;20483;-79
2021/11/14 00:42:36;;;;;;;14.57;10.40;;;10.50;99.90;;;;;;5033905;28;20439;-80
2021/11/14 00:45:04;;;;;;;13.93;10.97;;;10.50;99.90;;;;;;5028188;28;20546;-80
2021/11/14 00:47:32;;;;;;;14.30;11.00;;;10.40;99.90;;;;;;5036591;28;20525;-79
2021/11/14 00:49:59;;;;;;;15.33;11.53;;;10.50;99.90;;;;;;5038158;28;20917;-79
2021/11/14 00:52:26;;;;;;;17.40;12.67;;;10.50;99.90;;;;;;5035993;28;20475;-78
2021/11/14 00:54:52;;;;;;;17.50;12.70;;;10.40;99.90;;;;;;5034112;28;20534;-79
2021/11/14 00:57:21;;;;;;;17.80;14.17;;;10.40;99.90;;;;;;5031669;28;20461;-80
2021/11/14 00:59:47;;;;;;;16.43;12.10;;;10.40;99.90;;;;;;5038365;28;20565;-79
2021/11/14 01:02:14;;;;;;;15.60;12.43;;;10.50;99.90;;;;;;5038696;28;20444;-80
2021/11/14 01:04:41;;;;;;;16.63;13.50;;;10.40;99.90;;;;;;5043710;28;20447;-80
2021/11/14 01:07:09;;;;;;;16.10;12.13;;;10.40;99.90;;;;;;5043228;28;20518;-80
2021/11/14 01:09:36;;;;;;;17.13;13.43;;;10.40;99.90;;;;;;5042650;28;21026;-80
2021/11/14 01:12:03;;;;;;;16.03;12.00;;;10.40;99.90;;;;;;5036499;28;20502;-80
2021/11/14 01:14:31;;;;;;;15.83;11.40;;;10.40;99.90;;;;;;5036495;28;20458;-80
2021/11/14 01:16:58;;;;;;;14.27;10.80;;;10.40;99.90;;;;;;5039639;28;20458;-79
2021/11/14 01:19:25;;;;;;;14.70;11.20;;;10.40;99.90;;;;;;5038326;28;20947;-79
2021/11/14 01:21:52;;;;;;;15.60;10.07;;;10.40;99.90;;;;;;5039138;28;20983;-80
2021/11/14 01:24:19;;;;;;;13.37;10.10;;;10.40;99.90;;;;;;5040015;28;20540;-79
2021/11/14 01:26:46;;;;;;;13.67;10.53;;;10.40;99.90;;;;;;5041392;28;20454;-79
2021/11/14 01:29:12;;;;;;;14.83;10.23;;;10.40;99.90;;;;;;5041320;28;20547;-79
2021/11/14 01:31:41;;;;;;;15.90;10.23;;;10.40;99.90;;;;;;5038811;28;20476;-78
2021/11/14 01:34:07;;;;;;;12.20;9.00;;;10.40;99.90;;;;;;5041256;28;20460;-79
2021/11/14 01:36:36;;;;;;;13.93;10.00;;;10.40;99.90;;;;;;5038442;28;20460;-79
2021/11/14 01:39:05;;;;;;;14.80;10.40;;;10.40;99.90;;;;;;5040139;28;20516;-80
2021/11/14 01:41:32;;;;;;;11.87;9.40;;;10.40;99.90;;;;;;5039117;28;20456;-78
2021/11/14 01:43:59;;;;;;;13.30;10.00;;;10.40;99.90;;;;;;5039122;28;20485;-79
2021/11/14 01:46:26;;;;;;;12.70;9.40;;;10.40;99.90;;;;;;5038607;28;20462;-79
2021/11/14 01:48:54;;;;;;;14.17;9.50;;;10.40;99.90;;;;;;5038548;28;20477;-79
2021/11/14 01:51:22;;;;;;;13.97;10.53;;;10.40;99.90;;;;;;5037706;28;20462;-79
2021/11/14 01:53:50;;;;;;;13.00;9.73;;;10.30;99.90;;;;;;5037920;28;20501;-78
2021/11/14 01:56:18;;;;;;;15.70;10.80;;;10.30;99.90;;;;;;5037549;28;20481;-78
2021/11/14 01:58:46;;;;;;;12.10;9.40;;;10.20;99.90;;;;;;5036887;28;21117;-77
2021/11/14 02:01:16;;;;;;;15.00;10.57;;;10.20;99.90;;;;;;5036608;28;20454;-79
2021/11/14 02:03:46;;;;;;;13.33;9.83;;;10.10;99.90;;;;;;5038599;28;20457;-79
2021/11/14 02:06:14;;;;;;;13.17;9.37;;;10.10;99.90;;;;;;5034444;28;20456;-79
2021/11/14 02:08:43;;;;;;;13.53;10.00;;;10.10;99.90;;;;;;5037437;28;20452;-79
2021/11/14 02:11:15;;;;;;;14.57;11.40;;;10.20;99.90;;;;;;5036493;28;20477;-79
2021/11/14 02:13:43;;;;;;;15.83;11.47;;;10.10;99.90;;;;;;5035726;28;20486;-78
2021/11/14 02:16:10;;;;;;;15.20;11.20;;;9.90;99.90;;;;;;5033527;28;20462;-80
2021/11/14 02:18:37;;;;;;;12.43;9.17;;;9.90;99.90;;;;;;5066555;22;20531;-85
2021/11/14 02:21:05;;;;;;;12.90;8.80;;;9.90;99.90;;;;;;5060627;28;20599;-85
2021/11/14 02:23:33;;;;;;;11.60;8.97;;;10.00;99.90;;;;;;5058205;28;20448;-85
2021/11/14 02:26:00;;;;;;;13.00;9.83;;;10.00;99.90;;;;;;5059884;28;20452;-85
2021/11/14 02:28:27;;;;;;;12.30;8.90;;;10.00;99.90;;;;;;5060838;28;20479;-86
2021/11/14 02:30:56;;;;;;;12.27;9.17;;;10.10;99.90;;;;;;5047395;28;20473;-86
2021/11/14 02:33:23;;;;;;;14.77;9.83;;;10.00;99.90;;;;;;5041790;28;20857;-85
2021/11/14 02:35:53;;;;;;;14.17;10.20;;;10.00;99.90;;;;;;5054452;28;20465;-86
2021/11/14 02:38:21;;;;;;;13.93;10.63;;;9.80;99.90;;;;;;5061613;28;20482;-86
2021/11/14 02:40:49;;;;;;;14.90;10.93;;;9.50;99.90;;;;;;5057109;28;20448;-85
2021/11/14 02:43:17;;;;;;;11.20;8.37;;;9.30;99.90;;;;;;5053431;28;20446;-85
2021/11/14 02:45:44;;;;;;;12.37;8.37;;;9.30;99.90;;;;;;5055547;28;20457;-86
2021/11/14 02:48:14;;;;;;;13.90;9.93;;;9.20;99.90;;;;;;5055768;28;20464;-85
2021/11/14 02:50:43;;;;;;;13.30;9.33;;;9.10;99.90;;;;;;5043391;28;20464;-85
2021/11/14 02:53:11;;;;;;;12.87;8.20;;;9.00;99.90;;;;;;5050171;28;20484;-85
2021/11/14 02:55:40;;;;;;;14.67;9.23;;;9.00;99.90;;;;;;5046717;28;20441;-86
2021/11/14 02:58:08;;;;;;;11.90;8.67;;;8.90;99.90;;;;;;5055401;28;20456;-85
2021/11/14 03:00:39;;;;;;;11.73;7.70;;;8.90;99.90;;;;;;5045097;28;20461;-85
2021/11/14 03:03:06;;;;;;;11.63;7.80;;;8.80;99.90;;;;;;5040363;28;20456;-85
2021/11/14 03:05:33;;;;;;;13.23;9.60;;;8.70;99.90;;;;;;5048906;28;20457;-86
2021/11/14 03:08:02;;;;;;;17.03;11.00;;;8.70;99.90;;;;;;5048395;28;20455;-85
2021/11/14 03:10:31;;;;;;;15.93;10.43;;;8.50;99.90;;;;;;5047020;28;20458;-85
2021/11/14 03:13:01;;;;;;;15.97;10.30;;;8.50;99.90;;;;;;5057473;28;20489;-85
2021/11/14 03:15:32;;;;;;;16.47;10.07;;;8.50;99.90;;;;;;5056896;28;20449;-84
2021/11/14 03:18:00;;;;;;;18.60;11.40;;;8.60;99.90;;;;;;5059400;28;20506;-85
2021/11/14 03:20:27;;;;;;;25.43;14.80;;;8.50;99.90;;;;;;5051347;28;20456;-86
2021/11/14 03:22:55;;;;;;;18.37;11.60;;;8.50;99.90;;;;;;5047794;28;20456;-85
2021/11/14 03:25:23;;;;;;;21.93;11.97;;;8.50;99.90;;;;;;5042634;28;20463;-86
2021/11/14 03:27:51;;;;;;;17.30;10.77;;;8.60;99.90;;;;;;5044418;28;20870;-86
2021/11/14 03:30:20;;;;;;;18.70;11.50;;;8.60;99.90;;;;;;5058562;28;20560;-83
2021/11/14 03:32:47;;;;;;;17.60;11.70;;;8.70;99.90;;;;;;5065844;28;20472;-85
2021/11/14 03:35:14;;;;;;;18.70;11.80;;;8.70;99.90;;;;;;5060825;28;21136;-86
2021/11/14 03:37:41;;;;;;;18.90;12.97;;;8.70;99.90;;;;;;5059735;28;20459;-84
2021/11/14 03:40:10;;;;;;;15.27;10.67;;;8.80;99.90;;;;;;5045178;28;20923;-84
2021/11/14 03:42:37;;;;;;;16.97;11.73;;;8.70;99.90;;;;;;5045431;28;20451;-85
2021/11/14 03:45:06;;;;;;;18.63;12.90;;;8.80;99.90;;;;;;5050962;28;20540;-87
2021/11/14 03:47:34;;;;;;;16.40;11.37;;;8.80;99.90;;;;;;5044989;28;20451;-86
2021/11/14 03:50:01;;;;;;;16.90;11.10;;;8.70;99.90;;;;;;5057919;28;20476;-84
2021/11/14 03:52:28;;;;;;;16.73;12.00;;;8.70;99.90;;;;;;5054120;28;20503;-84
2021/11/14 03:54:55;;;;;;;14.53;9.07;;;8.70;99.90;;;;;;5057670;28;20933;-84
2021/11/14 03:57:21;;;;;;;16.93;10.57;;;8.70;99.90;;;;;;5047388;28;20455;-85
2021/11/14 03:59:48;;;;;;;16.43;11.00;;;8.60;99.90;;;;;;5039229;28;20479;-85
2021/11/14 04:02:15;;;;;;;13.73;9.07;;;8.60;99.90;;;;;;5039189;28;20908;-85
2021/11/14 04:04:43;;;;;;;17.47;11.07;;;8.60;99.90;;;;;;5039757;28;20449;-85
2021/11/14 04:07:10;;;;;;;17.60;10.40;;;8.60;99.90;;;;;;5043578;28;20941;-85
2021/11/14 04:09:37;;;;;;;20.43;13.73;;;8.60;99.90;;;;;;5059939;28;20470;-85
2021/11/14 04:12:05;;;;;;;21.47;13.53;;;8.50;99.90;;;;;;5056252;28;20445;-84
2021/11/14 04:14:31;;;;;;;24.67;14.50;;;8.50;99.90;;;;;;5039288;28;20481;-85
2021/11/14 04:16:58;;;;;;;33.93;18.50;;;8.60;99.90;;;;;;5038231;28;20453;-85
2021/11/14 04:19:26;;;;;;;30.13;18.40;;;8.40;99.90;;;;;;5057401;28;20482;-85
2021/11/14 04:21:54;;;;;;;39.43;24.70;;;8.30;99.90;;;;;;5056481;28;20828;-84
2021/11/14 04:24:21;;;;;;;40.63;21.97;;;8.20;99.90;;;;;;5057382;28;20449;-85
2021/11/14 04:26:48;;;;;;;41.43;23.57;;;8.30;99.90;;;;;;5056695;28;20470;-84
2021/11/14 04:29:15;;;;;;;48.20;26.30;;;8.20;99.90;;;;;;5039609;28;20469;-85
2021/11/14 04:31:42;;;;;;;55.67;28.60;;;8.30;99.90;;;;;;5038203;28;20814;-84
2021/11/14 04:34:08;;;;;;;78.83;40.13;;;8.30;99.90;;;;;;5037848;28;20503;-84
2021/11/14 04:36:35;;;;;;;75.27;35.20;;;8.20;99.90;;;;;;5037634;28;21131;-84
2021/11/14 04:39:04;;;;;;;51.50;29.23;;;8.20;99.90;;;;;;5037661;28;20478;-84
2021/11/14 04:41:31;;;;;;;54.13;31.17;;;8.30;99.90;;;;;;5037610;28;20523;-84
2021/11/14 04:43:58;;;;;;;49.07;29.37;;;8.40;99.90;;;;;;5038309;28;20820;-84
2021/11/14 04:46:25;;;;;;;38.53;23.67;;;8.50;99.90;;;;;;5042868;28;20543;-85
2021/11/14 04:48:52;;;;;;;34.50;21.03;;;8.50;99.90;;;;;;5054711;28;20483;-85
2021/11/14 04:51:18;;;;;;;26.77;18.37;;;8.50;99.90;;;;;;5041308;28;20453;-84
2021/11/14 04:53:45;;;;;;;33.00;18.50;;;8.40;99.90;;;;;;5056260;28;20955;-84
2021/11/14 04:56:14;;;;;;;25.57;17.20;;;8.30;99.90;;;;;;5045386;28;20532;-85
2021/11/14 04:58:41;;;;;;;26.37;16.40;;;8.40;99.90;;;;;;5037148;28;20479;-85
2021/11/14 05:01:08;;;;;;;31.93;16.23;;;8.30;99.90;;;;;;5053285;28;20967;-85
2021/11/14 05:03:35;;;;;;;24.10;15.97;;;8.40;99.90;;;;;;5040029;28;20438;-85
2021/11/14 05:06:01;;;;;;;32.00;18.43;;;8.40;99.90;;;;;;5036770;28;20461;-85
2021/11/14 05:08:28;;;;;;;25.70;16.90;;;8.20;99.90;;;;;;5037841;28;20469;-84
2021/11/14 05:10:55;;;;;;;30.00;18.20;;;8.30;99.90;;;;;;5051279;28;20456;-84
2021/11/14 05:13:23;;;;;;;27.33;15.80;;;8.30;99.90;;;;;;5057245;28;20529;-84
2021/11/14 05:15:50;;;;;;;28.60;17.70;;;8.30;99.90;;;;;;5043283;28;20457;-85
2021/11/14 05:18:17;;;;;;;29.40;18.93;;;8.30;99.90;;;;;;5036340;28;20480;-84
2021/11/14 05:20:44;;;;;;;26.20;16.37;;;8.10;99.90;;;;;;5036913;28;20456;-84
2021/11/14 05:23:15;;;;;;;28.00;17.80;;;8.20;99.90;;;;;;5037223;28;20849;-84
2021/11/14 05:25:42;;;;;;;31.70;19.33;;;8.20;99.90;;;;;;5040789;28;20456;-85
2021/11/14 05:28:10;;;;;;;27.13;17.23;;;8.30;99.90;;;;;;5057525;28;20939;-84
2021/11/14 05:30:38;;;;;;;28.67;17.20;;;8.30;99.90;;;;;;5038263;28;20821;-85
2021/11/14 05:33:05;;;;;;;27.37;17.50;;;8.40;99.90;;;;;;5048600;28;20555;-83
2021/11/14 05:35:32;;;;;;;31.00;20.10;;;8.50;99.90;;;;;;5057504;28;20455;-85
2021/11/14 05:37:59;;;;;;;30.23;18.10;;;8.50;99.90;;;;;;5054545;28;20982;-84
2021/11/14 05:40:26;;;;;;;37.03;21.47;;;8.40;99.90;;;;;;5059858;28;20967;-84
2021/11/14 05:42:53;;;;;;;38.00;22.37;;;8.50;99.90;;;;;;5051039;28;22173;-85
2021/11/14 05:45:20;;;;;;;29.70;20.53;;;8.50;99.90;;;;;;5054240;28;20448;-84
2021/11/14 05:47:49;;;;;;;44.50;25.47;;;8.50;99.90;;;;;;5058651;28;20452;-85
2021/11/14 05:50:16;;;;;;;40.80;21.70;;;8.30;99.90;;;;;;5073157;28;20467;-84
2021/11/14 05:52:43;;;;;;;34.83;21.93;;;8.20;99.90;;;;;;5079791;28;20454;-84
2021/11/14 05:55:11;;;;;;;34.73;21.47;;;8.10;99.90;;;;;;5070059;28;20461;-84
2021/11/14 05:57:46;;;;;;;33.20;20.03;;;8.10;99.90;;;;;;5058444;28;20476;-84
2021/11/14 06:00:19;;;;;;;40.47;24.70;;;8.20;99.90;;;;;;5050787;28;20475;-81
2021/11/14 06:02:48;;;;;;;47.83;28.50;;;8.30;99.90;;;;;;5051666;28;20449;-82
2021/11/14 06:05:17;;;;;;;35.47;23.20;;;8.20;99.90;;;;;;5051850;28;20484;-80
2021/11/14 06:07:45;;;;;;;34.30;23.00;;;8.20;99.90;;;;;;5045596;28;20537;-81
2021/11/14 06:10:13;;;;;;;38.40;23.37;;;8.30;99.90;;;;;;5057644;28;20847;-82
2021/11/14 06:12:41;;;;;;;41.53;26.90;;;8.30;99.90;;;;;;5054177;28;20447;-84
2021/11/14 06:15:10;;;;;;;41.10;25.70;;;8.30;99.90;;;;;;5038965;28;20488;-82
2021/11/14 06:17:37;;;;;;;35.50;24.33;;;8.30;99.90;;;;;;5042578;28;20488;-80
2021/11/14 06:20:04;;;;;;;40.17;24.83;;;8.40;99.90;;;;;;5042683;28;20481;-80
2021/11/14 06:22:33;;;;;;;43.33;23.60;;;8.30;99.90;;;;;;5040736;28;20984;-81
2021/11/14 06:25:00;;;;;;;32.80;22.33;;;8.30;99.90;;;;;;5056782;28;20984;-80
2021/11/14 06:27:27;;;;;;;41.13;25.80;;;8.30;99.90;;;;;;5058780;28;20457;-81
2021/11/14 06:29:54;;;;;;;36.17;23.20;;;8.20;99.90;;;;;;5058124;28;20484;-81
2021/11/14 06:32:20;;;;;;;44.63;26.53;;;8.30;99.90;;;;;;5057454;28;20975;-80
2021/11/14 06:34:47;;;;;;;37.27;23.70;;;8.20;99.90;;;;;;5056550;28;20483;-81
2021/11/14 06:37:14;;;;;;;41.27;25.97;;;8.20;99.90;;;;;;5055475;28;20451;-80
2021/11/14 06:39:42;;;;;;;35.73;22.57;;;8.30;99.90;;;;;;5054648;28;21126;-82
2021/11/14 06:42:09;;;;;;;30.83;20.20;;;8.20;99.90;;;;;;5037348;28;20447;-79
2021/11/14 06:44:36;;;;;;;36.10;21.10;;;8.30;99.90;;;;;;5038267;28;20968;-81
2021/11/14 06:47:04;;;;;;;30.87;21.37;;;8.30;99.90;;;;;;5036534;28;20466;-81
2021/11/14 06:49:31;;;;;;;30.30;19.50;;;8.30;99.90;;;;;;5046617;28;20484;-80
2021/11/14 06:51:57;;;;;;;36.57;24.30;;;8.30;99.90;;;;;;5053327;28;20452;-80
2021/11/14 06:54:24;;;;;;;31.47;19.63;;;8.30;99.90;;;;;;5056469;28;20491;-80
2021/11/14 06:56:52;;;;;;;26.40;17.80;;;8.10;99.90;;;;;;5053708;28;20455;-81
2021/11/14 06:59:19;;;;;;;29.37;17.90;;;8.10;99.90;;;;;;5055795;28;20472;-80
2021/11/14 07:01:46;;;;;;;31.13;19.57;;;8.10;99.90;;;;;;5049027;28;20536;-80
2021/11/14 07:04:13;;;;;;;37.83;21.87;;;8.10;99.90;;;;;;5037033;28;20452;-81
2021/11/14 07:06:40;;;;;;;35.77;22.57;;;8.00;99.90;;;;;;5041243;28;20518;-81
2021/11/14 07:09:08;;;;;;;33.90;20.30;;;8.00;99.90;;;;;;5045081;28;20487;-79
2021/11/14 07:11:35;;;;;;;40.80;22.90;;;8.10;99.90;;;;;;5038455;28;20487;-81
2021/11/14 07:14:04;;;;;;;39.50;21.03;;;8.00;99.90;;;;;;5054303;28;20483;-81
2021/11/14 07:16:32;;;;;;;38.10;22.37;;;8.10;99.90;;;;;;5054419;28;20460;-81
2021/11/14 07:19:00;;;;;;;39.73;23.27;;;8.00;99.90;;;;;;5053367;28;20482;-80
2021/11/14 07:21:27;;;;;;;37.03;21.90;;;8.10;99.90;;;;;;5034342;28;20455;-80
2021/11/14 07:23:53;;;;;;;39.90;23.30;;;8.20;99.90;;;;;;5036155;28;20445;-79
2021/11/14 07:26:21;;;;;;;36.37;23.53;;;8.20;99.90;;;;;;5056248;28;20466;-81
2021/11/14 07:28:47;;;;;;;39.33;24.57;;;8.20;99.90;;;;;;5055059;28;20480;-80
2021/11/14 07:31:16;;;;;;;32.53;21.97;;;8.20;99.90;;;;;;5051938;28;20956;-81
2021/11/14 07:33:42;;;;;;;44.00;25.57;;;8.30;99.90;;;;;;5054267;28;20481;-79
2021/11/14 07:36:09;;;;;;;35.30;23.87;;;8.30;99.90;;;;;;5060736;28;20956;-81
2021/11/14 07:38:36;;;;;;;38.23;23.63;;;8.30;99.90;;;;;;5047817;28;20485;-80
2021/11/14 07:41:06;;;;;;;34.90;21.87;;;8.20;99.90;;;;;;5049971;28;20457;-80
2021/11/14 07:43:36;;;;;;;37.83;24.27;;;8.20;99.90;;;;;;5048415;28;20452;-81
2021/11/14 07:46:03;;;;;;;33.23;21.10;;;8.10;99.90;;;;;;5051573;28;20448;-81
2021/11/14 07:48:31;;;;;;;34.73;21.53;;;8.00;99.90;;;;;;5046192;28;20482;-80
2021/11/14 07:50:58;;;;;;;31.03;18.73;;;8.00;99.90;;;;;;5035350;28;20539;-81
2021/11/14 07:53:25;;;;;;;29.07;19.30;;;7.90;99.90;;;;;;5034328;28;20455;-79
2021/11/14 07:55:53;;;;;;;25.13;18.90;;;8.10;99.90;;;;;;5035104;28;20453;-81
2021/11/14 07:58:20;;;;;;;27.40;18.67;;;8.20;99.90;;;;;;5032625;28;20492;-80
2021/11/14 08:00:49;;;;;;;26.70;18.43;;;8.30;99.90;;;;;;5034383;28;21007;-81
2021/11/14 08:03:16;;;;;;;25.83;18.27;;;8.40;99.90;;;;;;5034168;28;20453;-81
2021/11/14 08:05:45;;;;;;;25.30;18.07;;;8.60;99.90;;;;;;5035049;28;20460;-81
2021/11/14 08:08:12;;;;;;;25.37;17.80;;;8.80;99.90;;;;;;5035773;28;20987;-81
2021/11/14 08:10:40;;;;;;;22.10;16.93;;;8.80;99.90;;;;;;5034382;28;20455;-80
2021/11/14 08:13:07;;;;;;;19.60;14.43;;;9.00;99.90;;;;;;5045910;28;20485;-78
2021/11/14 08:15:35;;;;;;;24.70;14.67;;;9.10;99.90;;;;;;5052889;28;20871;-81
2021/11/14 08:18:02;;;;;;;19.57;13.97;;;9.10;99.90;;;;;;5051314;28;21079;-80
2021/11/14 08:20:32;;;;;;;17.10;10.87;;;9.20;99.90;;;;;;5054619;28;20464;-81
2021/11/14 08:23:01;;;;;;;18.13;12.20;;;9.30;99.90;;;;;;5054386;28;20471;-80
2021/11/14 08:25:29;;;;;;;15.97;10.83;;;9.50;99.90;;;;;;5054223;28;20444;-82
2021/11/14 08:27:56;;;;;;;17.17;11.23;;;9.70;99.90;;;;;;5054242;28;20458;-80
2021/11/14 08:30:24;;;;;;;17.27;10.83;;;9.70;99.90;;;;;;5049881;28;20448;-81
2021/11/14 08:32:51;;;;;;;13.60;9.60;;;9.90;99.90;;;;;;5054168;28;20885;-80
2021/11/14 08:35:19;;;;;;;15.93;11.30;;;10.10;99.90;;;;;;5054319;28;20495;-81
2021/11/14 08:37:47;;;;;;;15.80;10.23;;;10.00;99.90;;;;;;5054270;28;20450;-80
2021/11/14 08:40:15;;;;;;;16.07;11.10;;;10.00;99.90;;;;;;5053264;28;20468;-80
2021/11/14 08:42:43;;;;;;;16.80;11.10;;;10.00;99.90;;;;;;5051979;28;20462;-79
2021/11/14 08:45:10;;;;;;;18.20;11.57;;;10.00;99.90;;;;;;5053704;28;20452;-80
2021/11/14 08:47:37;;;;;;;13.77;9.13;;;10.00;99.90;;;;;;5052931;28;20464;-80
2021/11/14 08:50:05;;;;;;;16.17;10.87;;;10.30;99.90;;;;;;5052161;28;20477;-80
2021/11/14 08:52:32;;;;;;;17.30;11.07;;;10.10;99.90;;;;;;5053596;28;20449;-81
2021/11/14 08:54:59;;;;;;;17.80;12.73;;;10.30;99.90;;;;;;5052842;28;20488;-80
2021/11/14 08:57:27;;;;;;;18.07;10.90;;;10.10;99.90;;;;;;5053620;28;20457;-82
2021/11/14 08:59:54;;;;;;;16.10;11.03;;;10.20;99.90;;;;;;5054363;28;20460;-81
2021/11/14 09:02:22;;;;;;;16.27;11.17;;;10.30;99.90;;;;;;5052369;28;20461;-79
2021/11/14 09:04:49;;;;;;;15.67;9.97;;;10.30;99.90;;;;;;5043017;28;20455;-80
2021/11/14 09:07:16;;;;;;;16.20;10.20;;;10.30;99.90;;;;;;5043420;28;20458;-80
2021/11/14 09:09:43;;;;;;;17.27;11.87;;;10.40;99.90;;;;;;5058896;28;20480;-81
2021/11/14 09:12:10;;;;;;;15.60;10.23;;;10.60;99.90;;;;;;5052443;28;20472;-81
2021/11/14 09:14:39;;;;;;;17.47;11.03;;;10.60;99.90;;;;;;5031729;28;20495;-80
2021/11/14 09:17:06;;;;;;;18.43;11.20;;;10.80;99.90;;;;;;5040682;28;20465;-79
2021/11/14 09:19:33;;;;;;;17.17;10.33;;;10.80;99.90;;;;;;5055920;28;20504;-81
2021/11/14 09:22:00;;;;;;;16.23;10.00;;;10.70;99.90;;;;;;5054083;28;20456;-80
2021/11/14 09:24:27;;;;;;;16.57;10.40;;;10.60;99.90;;;;;;5051154;28;20455;-81
2021/11/14 09:26:54;;;;;;;17.97;10.90;;;10.60;99.90;;;;;;5054081;28;20464;-80
2021/11/14 09:29:20;;;;;;;14.73;8.70;;;10.60;99.90;;;;;;5052768;28;20473;-80
2021/11/14 09:31:49;;;;;;;15.07;10.63;;;10.60;99.90;;;;;;5055308;28;20460;-81
2021/11/14 09:34:16;;;;;;;14.83;8.77;;;10.60;99.90;;;;;;5055130;28;20570;-79
2021/11/14 09:36:44;;;;;;;15.97;9.47;;;10.40;99.90;;;;;;5043343;28;20446;-80
2021/11/14 09:39:13;;;;;;;16.40;9.47;;;10.40;99.90;;;;;;5053209;28;20500;-80
2021/11/14 09:41:43;;;;;;;14.77;9.17;;;10.60;99.90;;;;;;5049633;28;20458;-81
2021/11/14 09:44:13;;;;;;;15.80;9.43;;;11.00;99.90;;;;;;5067087;28;20447;-81
2021/11/14 09:46:45;;;;;;;16.57;9.90;;;11.60;99.90;;;;;;5072205;28;20505;-80
2021/11/14 09:49:14;;;;;;;15.73;9.43;;;11.90;99.90;;;;;;5064030;28;20483;-79
2021/11/14 09:51:41;;;;;;;15.27;9.40;;;12.10;99.90;;;;;;5067657;28;20464;-80
2021/11/14 09:54:09;;;;;;;13.70;9.03;;;11.90;99.90;;;;;;5071779;28;20745;-81
2021/11/14 09:56:36;;;;;;;14.47;9.13;;;11.80;99.90;;;;;;5072558;28;20548;-81
2021/11/14 09:59:03;;;;;;;16.47;10.33;;;11.70;99.90;;;;;;5069883;28;20493;-81
2021/11/14 10:01:30;;;;;;;14.37;8.90;;;11.70;99.90;;;;;;5061112;28;20490;-81
2021/11/14 10:03:56;;;;;;;15.87;10.10;;;11.80;99.90;;;;;;5061865;28;20545;-79
2021/11/14 10:06:26;;;;;;;14.57;9.37;;;11.80;99.90;;;;;;5057392;28;20457;-80
2021/11/14 10:08:53;;;;;;;16.87;10.00;;;11.90;99.90;;;;;;5056578;28;20484;-80
2021/11/14 10:11:31;;;;;;;15.10;10.30;;;12.10;99.90;;;;;;5055948;28;20461;-80
2021/11/14 10:13:57;;;;;;;17.63;10.70;;;11.60;99.90;;;;;;5061336;28;20454;-80
2021/11/14 10:16:28;;;;;;;20.47;11.10;;;11.50;99.90;;;;;;5056583;28;20574;-81
2021/11/14 10:18:57;;;;;;;16.57;10.30;;;11.30;99.90;;;;;;5056733;28;20501;-81
2021/11/14 10:21:28;;;;;;;16.43;9.53;;;11.10;99.90;;;;;;5050060;28;20443;-80
2021/11/14 10:23:55;;;;;;;16.43;10.43;;;11.20;99.90;;;;;;5048920;28;20461;-79
2021/11/14 10:26:25;;;;;;;15.60;10.83;;;11.10;99.90;;;;;;5053939;28;20465;-80
2021/11/14 10:28:52;;;;;;;14.90;9.57;;;11.10;99.90;;;;;;5051169;28;20466;-78
2021/11/14 10:31:23;;;;;;;16.00;10.63;;;11.20;99.90;;;;;;5053032;28;20443;-79
2021/11/14 10:33:50;;;;;;;15.07;9.80;;;11.20;99.90;;;;;;5053394;28;20455;-80
2021/11/14 10:36:18;;;;;;;16.33;10.37;;;11.30;99.90;;;;;;5054422;28;20490;-78
2021/11/14 10:38:46;;;;;;;16.73;10.33;;;11.50;99.90;;;;;;5054552;28;20489;-79
2021/11/14 10:41:14;;;;;;;16.70;11.13;;;11.30;99.90;;;;;;5055292;28;20467;-79
2021/11/14 10:43:43;;;;;;;15.67;10.40;;;11.40;99.90;;;;;;5051919;28;20464;-79
2021/11/14 10:46:20;;;;;;;15.97;9.67;;;11.50;99.90;;;;;;5055603;28;20499;-80
2021/11/14 10:48:47;;;;;;;16.77;11.50;;;11.50;99.90;;;;;;5059799;28;20467;-81
2021/11/14 10:51:14;;;;;;;14.10;9.17;;;11.40;99.90;;;;;;5060356;28;20439;-81
2021/11/14 10:53:45;;;;;;;15.30;8.80;;;11.50;99.90;;;;;;5057194;28;20455;-81
2021/11/14 10:56:15;;;;;;;13.70;8.57;;;11.50;99.90;;;;;;5052270;28;20494;-79
2021/11/14 10:58:45;;;;;;;16.00;9.90;;;11.50;99.90;;;;;;5057669;28;20548;-78
2021/11/14 11:01:19;;;;;;;15.17;9.47;;;11.40;99.90;;;;;;5056600;28;20458;-80
2021/11/14 11:03:48;;;;;;;13.33;8.57;;;11.70;99.90;;;;;;5057535;28;20516;-79
2021/11/14 11:06:22;;;;;;;13.60;8.50;;;11.80;99.90;;;;;;5059784;28;20454;-80
2021/11/14 11:08:49;;;;;;;14.20;8.63;;;12.50;99.90;;;;;;5058078;28;20511;-80
2021/11/14 11:11:21;;;;;;;14.03;7.80;;;12.80;99.90;;;;;;5055301;28;20458;-82
2021/11/14 11:13:49;;;;;;;14.47;9.23;;;13.00;99.90;;;;;;5049511;28;20535;-78
2021/11/14 11:16:19;;;;;;;17.00;10.67;;;13.00;99.90;;;;;;5060316;28;20558;-78
2021/11/14 11:18:57;;;;;;;14.50;9.80;;;13.30;99.90;;;;;;5057039;28;20487;-79
2021/11/14 11:21:29;;;;;;;14.30;9.27;;;13.10;99.90;;;;;;5056957;28;20497;-80
2021/11/14 11:24:06;;;;;;;13.70;8.97;;;13.00;99.90;;;;;;5056866;28;20480;-80
2021/11/14 11:26:34;;;;;;;16.00;11.40;;;13.30;99.90;;;;;;5057087;28;20468;-79
2021/11/14 11:29:01;;;;;;;16.60;12.50;;;13.30;99.90;;;;;;5058606;28;20516;-79
2021/11/14 11:31:28;;;;;;;17.63;12.80;;;12.90;99.90;;;;;;5049075;28;20861;-79
2021/11/14 11:33:55;;;;;;;20.60;12.70;;;12.30;99.90;;;;;;5050249;28;20914;-82
2021/11/14 11:36:24;;;;;;;18.33;12.70;;;12.30;99.90;;;;;;5057430;28;20510;-82
2021/11/14 11:38:52;;;;;;;18.30;13.43;;;12.40;99.90;;;;;;5057971;28;20557;-80
2021/11/14 11:41:21;;;;;;;18.83;13.97;;;12.40;99.90;;;;;;5050617;28;20469;-80
2021/11/14 11:43:50;;;;;;;16.43;12.80;;;12.70;99.90;;;;;;5048676;28;20452;-77
2021/11/14 11:46:20;;;;;;;18.50;13.13;;;12.80;99.90;;;;;;5044544;28;20445;-77
2021/11/14 11:48:49;;;;;;;14.43;10.80;;;13.20;99.90;;;;;;5050298;28;20491;-78
2021/11/14 11:51:20;;;;;;;17.13;11.57;;;13.70;99.90;;;;;;5042471;28;20451;-82
2021/11/14 11:53:58;;;;;;;15.87;10.90;;;14.30;99.90;;;;;;5053565;28;20649;-79
2021/11/14 11:56:36;;;;;;;13.87;9.17;;;14.80;99.90;;;;;;5043616;28;20475;-80
2021/11/14 11:59:14;;;;;;;14.50;9.53;;;15.50;99.90;;;;;;5034899;28;20474;-81
2021/11/14 12:01:48;;;;;;;16.47;10.13;;;16.00;99.90;;;;;;5046329;28;20545;-82
2021/11/14 12:04:19;;;;;;;14.33;10.37;;;16.20;99.90;;;;;;5045457;28;20457;-81
2021/11/14 12:06:49;;;;;;;15.23;9.63;;;16.00;99.90;;;;;;5048302;28;20443;-80
2021/11/14 12:09:17;;;;;;;13.60;9.13;;;16.10;99.90;;;;;;5043485;28;20605;-82
2021/11/14 12:11:47;;;;;;;12.03;8.70;;;15.70;99.90;;;;;;5043171;28;20496;-82
2021/11/14 12:14:21;;;;;;;12.23;8.47;;;15.80;99.90;;;;;;5046298;28;20453;-80
2021/11/14 12:17:00;;;;;;;13.00;8.50;;;15.80;99.90;;;;;;5050363;28;20580;-82
2021/11/14 12:19:28;;;;;;;11.10;7.07;;;15.40;99.90;;;;;;5043107;28;20566;-80
2021/11/14 12:21:58;;;;;;;11.23;7.43;;;15.80;99.90;;;;;;5047901;28;20440;-81
2021/11/14 12:24:25;;;;;;;12.90;7.73;;;15.30;99.90;;;;;;5041269;28;20496;-81
2021/11/14 12:26:52;;;;;;;13.00;8.97;;;14.90;99.90;;;;;;5051500;28;20469;-80
2021/11/14 12:29:31;;;;;;;13.13;8.00;;;14.30;99.90;;;;;;5054068;28;20518;-81
2021/11/14 12:32:00;;;;;;;12.77;8.30;;;14.50;99.90;;;;;;5039255;28;20938;-83
2021/11/14 12:34:33;;;;;;;11.50;7.43;;;14.10;99.90;;;;;;5050746;28;20538;-82
2021/11/14 12:37:09;;;;;;;10.90;6.30;;;14.10;99.90;;;;;;5039963;28;20541;-81